Time;durP1;ratioP1;P1;durP2;ratioP2;P2;SDS_P1;SDS_P2;PMS_P1;PMS_P2;Temp;Humidity;BMP_temperature;BMP_pressure;BME280_temperature;BME280_humidity;BME280_pressure;Samples;Min_cycle;Max_cycle;Signal;HPM_P1;HPM_P2
2023/03/15 00:01:23;;;;;;;;;3.50;3.00;;;;;5.73;79.54;101040.19;5119874;27;46241;-63
2023/03/15 00:03:48;;;;;;;;;2.75;2.75;;;;;5.73;79.58;101036.72;5119405;27;45444;-62
2023/03/15 00:06:14;;;;;;;;;7.00;2.50;;;;;5.83;79.98;101051.53;5119844;27;45291;-62
2023/03/15 00:08:39;;;;;;;;;4.00;2.33;;;;;5.84;79.76;101044.56;5119621;27;45299;-62
2023/03/15 00:11:05;;;;;;;;;4.25;1.75;;;;;5.85;79.46;101052.44;5119922;27;45412;-63
2023/03/15 00:13:31;;;;;;;;;5.33;4.00;;;;;5.87;79.45;101055.03;5119666;27;45256;-63
2023/03/15 00:15:59;;;;;;;;;1.75;1.00;;;;;5.95;79.44;101070.72;5119477;27;45327;-63
2023/03/15 00:18:25;;;;;;;;;4.00;2.33;;;;;5.89;79.09;101050.69;5119738;27;45418;-63
2023/03/15 00:20:51;;;;;;;;;2.75;2.00;;;;;5.98;79.17;101057.69;5119338;27;46507;-63
2023/03/15 00:23:16;;;;;;;;;3.50;2.25;;;;;5.91;78.94;101052.44;5119396;27;45317;-63
2023/03/15 00:25:49;;;;;;;;;4.50;3.00;;;;;5.98;79.24;101066.41;5119460;27;45344;-62
2023/03/15 00:28:15;;;;;;;;;3.50;2.00;;;;;6.01;79.57;101069.03;5119538;27;45391;-63
2023/03/15 00:30:41;;;;;;;;;3.67;3.00;;;;;6.01;79.22;101070.75;5119315;27;47831;-63
2023/03/15 00:33:07;;;;;;;;;3.00;3.00;;;;;6.06;79.19;101076.88;5119296;27;45844;-63
2023/03/15 00:35:37;;;;;;;;;4.00;4.00;;;;;5.99;79.63;101076.00;5119470;27;45374;-63
2023/03/15 00:38:03;;;;;;;;;5.67;2.33;;;;;5.99;79.39;101069.91;5119805;27;45351;-63
2023/03/15 00:40:29;;;;;;;;;2.00;1.67;;;;;6.10;79.20;101082.09;5118926;27;47037;-63
2023/03/15 00:42:56;;;;;;;;;7.00;5.33;;;;;6.04;79.67;101063.81;5119453;27;45422;-63
2023/03/15 00:45:22;;;;;;;;;3.00;3.00;;;;;6.14;79.48;101082.09;5119287;27;45363;-63
2023/03/15 00:47:49;;;;;;;;;1.00;1.00;;;;;6.14;79.34;101069.91;5119494;27;45461;-63
2023/03/15 00:50:15;;;;;;;;;2.00;2.00;;;;;6.21;79.17;101087.34;5119250;27;45530;-62
2023/03/15 00:52:41;;;;;;;;;1.50;1.50;;;;;6.26;78.73;101090.84;5118998;27;45280;-63
2023/03/15 00:55:14;;;;;;;;;9.00;3.33;;;;;6.28;78.55;101091.69;5118732;27;45422;-63
2023/03/15 00:57:41;;;;;;;;;2.75;1.00;;;;;6.32;78.05;101094.31;5118606;27;45228;-63
2023/03/15 01:00:28;;;;;;;;;1.00;1.00;;;;;6.39;77.20;101103.91;5118776;27;45347;-63
2023/03/15 01:02:53;;;;;;;;;1.75;1.75;;;;;6.43;76.41;101126.56;5118590;27;45394;-63
2023/03/15 01:05:20;;;;;;;;;3.00;1.00;;;;;6.50;75.94;101128.31;5119136;27;45498;-62
2023/03/15 01:07:45;;;;;;;;;0.75;0.00;;;;;6.50;76.90;101135.31;5119176;27;45569;-63
2023/03/15 01:10:11;;;;;;;;;1.25;1.00;;;;;6.57;76.50;101144.91;5118542;27;46611;-62
2023/03/15 01:12:37;;;;;;;;;0.25;0.25;;;;;6.55;76.75;101152.75;5118928;27;45291;-63
2023/03/15 01:15:06;;;;;;;;;0.25;0.25;;;;;6.56;77.17;101151.00;5118903;27;45445;-63
2023/03/15 01:17:31;;;;;;;;;0.75;0.75;;;;;6.41;77.07;101123.09;5118863;27;45165;-63
2023/03/15 01:19:58;;;;;;;;;2.75;1.00;;;;;6.57;77.29;101153.63;5118857;27;47076;-63
2023/03/15 01:22:23;;;;;;;;;0.00;0.00;;;;;6.57;77.51;101150.13;5118723;27;45521;-63
2023/03/15 01:24:49;;;;;;;;;1.00;1.00;;;;;6.59;77.22;101137.91;5118797;27;45321;-63
2023/03/15 01:27:14;;;;;;;;;1.75;1.50;;;;;6.61;76.86;101149.28;5119099;27;45399;-63
2023/03/15 01:29:40;;;;;;;;;1.25;1.25;;;;;6.40;76.09;101116.97;5118368;27;46481;-63
2023/03/15 01:32:05;;;;;;;;;1.00;1.00;;;;;6.51;76.28;101124.84;5118752;27;45389;-63
2023/03/15 01:34:31;;;;;;;;;4.00;1.00;;;;;6.61;75.95;101152.75;5118751;27;45341;-63
2023/03/15 01:36:56;;;;;;;;;0.50;0.50;;;;;6.61;75.90;101146.66;5118991;27;45318;-63
2023/03/15 01:39:22;;;;;;;;;0.00;0.00;;;;;6.56;76.12;101141.41;5118303;27;45562;-63
2023/03/15 01:41:47;;;;;;;;;0.25;0.00;;;;;6.59;75.19;101148.38;5118604;27;45256;-63
2023/03/15 01:44:14;;;;;;;;;2.00;0.50;;;;;6.62;75.90;101154.50;5118600;27;45299;-63
2023/03/15 01:46:40;;;;;;;;;1.75;0.25;;;;;6.59;75.45;101145.75;5118743;27;45481;-63
2023/03/15 01:49:24;;;;;;;;;1.50;0.25;;;;;6.68;75.82;101155.34;5118236;27;45262;-63
2023/03/15 01:52:01;;;;;;;;;2.00;0.75;;;;;6.70;76.03;101156.25;5118170;27;45170;-63
2023/03/15 01:54:32;;;;;;;;;0.50;0.00;;;;;6.70;75.89;101159.72;5118313;27;45405;-63
2023/03/15 01:57:05;;;;;;;;;2.00;0.00;;;;;6.65;75.61;101155.34;5118488;27;45466;-63
2023/03/15 01:59:37;;;;;;;;;2.50;1.00;;;;;6.66;76.06;101152.75;5118176;27;46377;-63
2023/03/15 02:02:05;;;;;;;;;3.00;1.50;;;;;6.72;75.63;101159.72;5118349;27;45405;-63
2023/03/15 02:04:39;;;;;;;;;1.00;1.00;;;;;6.62;76.49;101151.88;5118264;27;45354;-63
2023/03/15 02:07:05;;;;;;;;;1.75;0.00;;;;;6.67;75.98;101151.03;5118481;27;45427;-63
2023/03/15 02:09:47;;;;;;;;;6.75;2.00;;;;;6.71;76.12;101153.63;5121504;27;46736;-63
2023/03/15 02:12:12;;;;;;;;;2.50;1.00;;;;;6.75;75.70;101163.22;5121620;27;45380;-63
2023/03/15 02:14:39;;;;;;;;;3.00;1.25;;;;;6.70;75.29;101144.03;5121719;27;45262;-63
2023/03/15 02:17:05;;;;;;;;;1.50;1.00;;;;;6.74;75.06;101160.63;5121925;27;45268;-63
2023/03/15 02:20:12;;;;;;;;;2.00;1.00;;;;;6.75;75.80;101168.47;5121233;27;46605;-63
2023/03/15 02:22:52;;;;;;;;;2.00;2.00;;;;;6.67;76.57;101159.72;5078433;28;45419;-63
2023/03/15 02:25:31;;;;;;;;;1.75;1.50;;;;;6.78;76.21;101176.31;5078218;28;45361;-63
2023/03/15 02:27:57;;;;;;;;;1.00;1.00;;;;;6.74;76.56;101182.41;5078458;28;45513;-63
2023/03/15 02:30:22;;;;;;;;;2.25;1.00;;;;;6.79;76.75;101182.41;5077796;28;47125;-63
2023/03/15 02:32:48;;;;;;;;;1.75;1.75;;;;;6.83;76.08;101194.63;5077930;28;45344;-63
2023/03/15 02:35:26;;;;;;;;;2.00;1.00;;;;;6.84;76.36;101192.88;5078136;28;45481;-63
2023/03/15 02:37:52;;;;;;;;;1.00;1.00;;;;;6.77;76.42;101185.03;5078294;28;45391;-63
2023/03/15 02:40:20;;;;;;;;;1.75;1.75;;;;;6.80;77.09;101190.25;5077643;28;47310;-63
2023/03/15 02:42:47;;;;;;;;;2.00;2.00;;;;;6.84;78.13;101200.72;5077921;28;45395;-63
2023/03/15 02:45:13;;;;;;;;;3.00;2.00;;;;;6.73;78.46;101178.03;5078122;28;45394;-63
2023/03/15 02:47:39;;;;;;;;;3.00;1.00;;;;;6.80;77.61;101187.63;5078264;28;45521;-63
2023/03/15 02:50:06;;;;;;;;;2.25;2.00;;;;;6.69;76.96;101175.44;5077615;28;47061;-63
2023/03/15 02:52:31;;;;;;;;;1.75;1.75;;;;;6.82;77.58;101203.34;5077657;28;45666;-63
2023/03/15 02:54:57;;;;;;;;;2.00;1.75;;;;;6.82;77.82;101207.72;5077756;28;45574;-63
2023/03/15 02:57:22;;;;;;;;;2.75;2.00;;;;;6.75;77.63;101188.50;5078205;28;45460;-63
2023/03/15 02:59:50;;;;;;;;;1.00;1.00;;;;;6.84;77.00;101217.31;5116586;27;45208;-63
2023/03/15 03:02:17;;;;;;;;;1.75;1.25;;;;;6.68;78.35;101197.22;5120847;27;46265;-63
2023/03/15 03:04:42;;;;;;;;;1.50;0.75;;;;;6.78;78.56;101209.44;5121074;27;45257;-63
2023/03/15 03:07:08;;;;;;;;;1.50;1.00;;;;;6.86;78.32;101218.19;5120741;27;45445;-63
2023/03/15 03:09:33;;;;;;;;;2.00;0.50;;;;;6.84;78.19;101222.56;5120840;27;46208;-63
2023/03/15 03:11:59;;;;;;;;;1.00;1.00;;;;;6.88;79.21;101223.41;5120834;27;45336;-63
2023/03/15 03:14:24;;;;;;;;;2.00;1.00;;;;;6.87;78.70;101219.94;5120692;27;45232;-63
2023/03/15 03:16:50;;;;;;;;;3.00;1.00;;;;;6.89;78.71;101220.78;5120958;27;45448;-63
2023/03/15 03:19:15;;;;;;;;;1.00;1.00;;;;;6.93;78.82;101234.78;5119406;27;45763;-63
2023/03/15 03:21:42;;;;;;;;;1.00;1.00;;;;;6.80;78.83;101221.66;5120731;27;45496;-63
2023/03/15 03:24:08;;;;;;;;;4.00;2.00;;;;;6.81;78.24;101222.53;5120669;27;45328;-63
2023/03/15 03:26:33;;;;;;;;;4.00;1.00;;;;;6.84;79.60;101221.66;5120638;27;45474;-64
2023/03/15 03:28:59;;;;;;;;;2.00;2.00;;;;;6.88;78.88;101236.50;5120272;27;45363;-63
2023/03/15 03:31:26;;;;;;;;;2.00;2.00;;;;;6.93;79.22;101243.47;5120385;27;45451;-63
2023/03/15 03:33:52;;;;;;;;;1.50;1.00;;;;;6.86;78.57;101231.25;5120548;27;45424;-63
2023/03/15 03:36:17;;;;;;;;;4.75;4.00;;;;;6.91;79.04;101236.50;5120948;27;45354;-63
2023/03/15 03:38:45;;;;;;;;;3.50;2.00;;;;;7.00;78.77;101249.59;5120040;27;46468;-63
2023/03/15 03:41:12;;;;;;;;;2.00;1.00;;;;;7.01;79.69;101253.09;5120413;27;45228;-63
2023/03/15 03:43:38;;;;;;;;;3.00;1.25;;;;;7.01;79.10;101253.94;5120302;27;45263;-63
2023/03/15 03:46:04;;;;;;;;;5.25;1.00;;;;;6.93;78.75;101237.38;5120566;27;45490;-63
2023/03/15 03:48:30;;;;;;;;;2.75;1.50;;;;;6.97;79.00;101255.72;5120398;27;45332;-63
2023/03/15 03:50:56;;;;;;;;;4.00;2.00;;;;;6.96;78.99;101253.94;5120125;27;45553;-63
2023/03/15 03:53:21;;;;;;;;;2.00;2.00;;;;;6.93;79.28;101258.31;5120215;27;45291;-63
2023/03/15 03:55:47;;;;;;;;;1.25;1.25;;;;;6.84;79.06;101267.06;5120257;27;45438;-63
2023/03/15 03:58:12;;;;;;;;;3.25;1.00;;;;;6.75;79.30;101270.53;5119824;27;45651;-63
2023/03/15 04:00:38;;;;;;;;;3.25;2.00;;;;;6.71;79.63;101265.25;5120160;27;45465;-63
2023/03/15 04:03:03;;;;;;;;;3.00;2.50;;;;;6.66;78.96;101269.63;5119964;27;45439;-63
2023/03/15 04:05:29;;;;;;;;;4.00;2.25;;;;;6.63;79.49;101270.50;5120266;27;45337;-63
2023/03/15 04:07:54;;;;;;;;;2.75;2.00;;;;;6.34;79.89;101239.91;5118314;27;47330;-63
2023/03/15 04:10:25;;;;;;;;;3.50;2.00;;;;;6.51;80.06;101280.94;5119742;27;45222;-63
2023/03/15 04:12:52;;;;;;;;;4.75;1.00;;;;;6.43;80.20;101271.34;5119886;27;45398;-63
2023/03/15 04:15:18;;;;;;;;;3.25;2.25;;;;;6.37;79.73;101281.75;5119906;27;45322;-63
2023/03/15 04:17:43;;;;;;;;;5.00;2.00;;;;;6.30;79.95;101287.81;5119617;27;46470;-63
2023/03/15 04:20:11;;;;;;;;;7.50;2.75;;;;;6.26;80.51;101280.88;5119596;27;45455;-63
2023/03/15 04:22:38;;;;;;;;;3.00;2.00;;;;;6.27;80.83;101277.38;5119766;27;45295;-63
2023/03/15 04:25:04;;;;;;;;;3.00;1.50;;;;;6.30;80.48;101271.28;5119913;27;45414;-63
2023/03/15 04:27:29;;;;;;;;;3.50;3.50;;;;;6.33;80.31;101286.97;5119333;27;45414;-63
2023/03/15 04:29:55;;;;;;;;;2.50;1.50;;;;;6.29;80.24;101288.72;5119071;27;45410;-63
2023/03/15 04:32:21;;;;;;;;;2.25;1.25;;;;;6.30;79.77;101292.19;5119772;27;45338;-63
2023/03/15 04:34:50;;;;;;;;;1.00;1.00;;;;;6.25;80.74;101293.06;5108968;27;45257;-63
2023/03/15 04:37:18;;;;;;;;;4.25;2.50;;;;;6.30;80.90;101302.66;5110218;27;47381;-63
2023/03/15 04:39:43;;;;;;;;;3.50;2.00;;;;;6.26;80.36;101286.09;5098565;27;45469;-63
2023/03/15 04:42:09;;;;;;;;;1.75;1.75;;;;;6.34;80.64;101297.44;5098743;27;45299;-63
2023/03/15 04:44:35;;;;;;;;;2.75;1.00;;;;;6.31;79.46;101304.41;5099137;27;45459;-63
2023/03/15 04:47:00;;;;;;;;;3.50;3.00;;;;;6.34;79.96;101322.72;5098508;27;46355;-63
2023/03/15 04:49:26;;;;;;;;;4.50;2.25;;;;;6.27;79.70;101317.47;5098661;27;45390;-63
2023/03/15 04:51:51;;;;;;;;;5.00;2.75;;;;;6.22;80.28;101329.66;5098688;27;45261;-63
2023/03/15 04:54:16;;;;;;;;;2.00;1.25;;;;;6.21;80.38;101340.09;5098738;27;45391;-63
2023/03/15 04:56:42;;;;;;;;;6.75;3.00;;;;;5.98;80.03;101308.63;5098542;27;45352;-63
2023/03/15 04:59:09;;;;;;;;;18.67;16.00;;;;;6.07;80.27;101332.19;5098317;27;45348;-63
2023/03/15 05:01:34;;;;;;;;;3.75;3.00;;;;;6.08;80.15;101339.16;5098682;27;45316;-63
2023/03/15 05:04:00;;;;;;;;;7.00;5.00;;;;;6.07;80.43;101355.69;5098518;27;45354;-63
2023/03/15 05:06:25;;;;;;;;;8.00;2.25;;;;;5.99;80.44;101354.81;5098195;27;47125;-63
2023/03/15 05:08:51;;;;;;;;;3.00;3.00;;;;;5.91;80.33;101345.16;5098256;27;45564;-63
2023/03/15 05:11:16;;;;;;;;;5.33;3.00;;;;;5.94;80.99;101359.97;5098096;27;45497;-63
2023/03/15 05:13:42;;;;;;;;;7.00;3.00;;;;;5.81;80.93;101345.06;5098658;27;45324;-63
2023/03/15 05:16:07;;;;;;;;;9.00;2.75;;;;;5.87;80.08;101364.28;5098223;27;45244;-63
2023/03/15 05:18:32;;;;;;;;;2.50;1.50;;;;;5.85;80.54;101368.63;5098025;27;45322;-63
2023/03/15 05:20:58;;;;;;;;;4.75;3.00;;;;;5.81;80.87;101361.63;5098334;27;45168;-63
2023/03/15 05:23:24;;;;;;;;;2.00;1.25;;;;;5.75;80.70;101353.72;5098413;27;45392;-63
2023/03/15 05:25:54;;;;;;;;;2.50;2.00;;;;;5.79;80.25;101357.25;5097880;27;47351;-63
2023/03/15 05:28:21;;;;;;;;;4.25;3.00;;;;;5.75;80.54;101361.56;5097995;27;45300;-63
2023/03/15 05:30:47;;;;;;;;;3.25;3.00;;;;;5.65;80.78;101358.03;5098123;27;45357;-63
2023/03/15 05:33:12;;;;;;;;;5.00;2.33;;;;;5.63;80.48;101374.56;5098403;27;45429;-63
2023/03/15 05:35:38;;;;;;;;;7.75;4.00;;;;;5.56;81.86;101365.78;5097863;27;46142;-63
2023/03/15 05:38:04;;;;;;;;;4.25;3.25;;;;;5.48;81.79;101343.97;5097956;27;45422;-63
2023/03/15 05:40:31;;;;;;;;;4.50;3.75;;;;;5.61;81.57;101371.06;5096317;27;45785;-63
2023/03/15 05:42:58;;;;;;;;;3.25;1.25;;;;;5.60;81.12;101375.41;5098372;27;45488;-63
2023/03/15 05:45:23;;;;;;;;;4.50;3.00;;;;;5.52;81.38;101367.50;5101425;27;46028;-63
2023/03/15 05:47:48;;;;;;;;;6.25;3.75;;;;;5.57;81.14;101373.63;5101447;27;45361;-63
2023/03/15 05:50:14;;;;;;;;;5.67;5.33;;;;;5.52;81.42;101372.72;5101221;27;45485;-63
2023/03/15 05:52:39;;;;;;;;;5.00;2.00;;;;;5.56;81.16;101377.13;5101674;27;45361;-63
2023/03/15 05:55:05;;;;;;;;;6.25;3.00;;;;;5.51;80.80;101372.72;5101054;27;46062;-63
2023/03/15 05:57:30;;;;;;;;;3.25;2.75;;;;;5.51;81.22;101380.56;5101089;27;45481;-63
2023/03/15 05:59:56;;;;;;;;;3.00;3.00;;;;;5.44;81.75;101382.22;5101490;27;45372;-63
2023/03/15 06:02:21;;;;;;;;;2.75;2.75;;;;;5.46;82.06;101384.84;5101263;27;45327;-63
2023/03/15 06:04:46;;;;;;;;;32.00;25.00;;;;;5.40;80.87;101394.41;5101032;27;46592;-63
2023/03/15 06:07:12;;;;;;;;;3.33;3.33;;;;;5.27;81.22;101381.22;5100899;27;45400;-63
2023/03/15 06:09:37;;;;;;;;;7.67;5.33;;;;;5.31;81.72;101406.50;5101338;27;45466;-63
2023/03/15 06:12:03;;;;;;;;;6.75;3.75;;;;;5.23;82.48;101393.38;5101233;27;45372;-63
2023/03/15 06:14:28;;;;;;;;;4.75;3.75;;;;;5.15;81.45;101388.06;5100694;27;46300;-63
2023/03/15 06:16:54;;;;;;;;;9.67;7.00;;;;;5.18;81.40;101405.50;5100783;27;45245;-63
2023/03/15 06:19:20;;;;;;;;;2.00;2.00;;;;;5.03;81.91;101395.78;5100902;27;45372;-63
2023/03/15 06:21:46;;;;;;;;;12.00;8.67;;;;;4.94;81.91;101399.16;5101305;27;45470;-63
2023/03/15 06:24:11;;;;;;;;;7.33;7.33;;;;;5.00;81.98;101408.78;5100633;27;46740;-62
2023/03/15 06:26:36;;;;;;;;;12.00;8.00;;;;;4.98;82.84;101403.56;5100656;27;45349;-62
2023/03/15 06:29:02;;;;;;;;;9.33;8.67;;;;;5.04;82.81;101407.97;5100906;27;45323;-63
2023/03/15 06:31:27;;;;;;;;;16.00;12.33;;;;;5.07;83.27;101415.84;5100892;27;45467;-63
2023/03/15 06:33:52;;;;;;;;;14.33;8.00;;;;;5.05;82.35;101400.16;5100376;27;46523;-63
2023/03/15 06:36:18;;;;;;;;;13.67;7.33;;;;;5.13;81.46;101423.72;5100519;27;45400;-63
2023/03/15 06:38:43;;;;;;;;;11.33;7.33;;;;;5.11;82.10;101437.59;5100548;27;45822;-63
2023/03/15 06:41:08;;;;;;;;;10.33;9.00;;;;;5.14;82.49;101440.25;5100567;27;45467;-63
2023/03/15 06:43:34;;;;;;;;;8.33;6.00;;;;;5.55;82.62;101429.34;5100384;27;46734;-63
2023/03/15 06:45:59;;;;;;;;;14.33;11.67;;;;;5.57;80.52;101432.84;5100539;27;45352;-63
2023/03/15 06:48:26;;;;;;;;;15.00;14.33;;;;;5.52;81.01;101445.88;5100502;27;45307;-63
2023/03/15 06:50:51;;;;;;;;;7.33;7.00;;;;;5.54;81.19;101446.75;5100438;27;45592;-63
2023/03/15 06:53:17;;;;;;;;;7.00;4.33;;;;;5.34;81.21;101410.00;5100214;27;46362;-63
2023/03/15 06:55:43;;;;;;;;;9.67;8.00;;;;;5.62;81.27;101459.91;5100301;27;45419;-63
2023/03/15 06:58:09;;;;;;;;;18.67;13.00;;;;;5.64;80.86;101463.38;5100448;27;45379;-63
2023/03/15 07:00:35;;;;;;;;;8.67;8.00;;;;;5.61;80.48;101454.66;5100610;27;45338;-63
2023/03/15 07:03:00;;;;;;;;;9.33;8.00;;;;;5.91;79.72;101460.16;5099580;27;46084;-63
2023/03/15 07:05:26;;;;;;;;;9.00;5.33;;;;;6.01;78.41;101461.13;5100105;27;45426;-63
2023/03/15 07:07:51;;;;;;;;;10.33;8.33;;;;;5.95;79.16;101478.47;5100057;27;45481;-63
2023/03/15 07:10:17;;;;;;;;;7.67;7.67;;;;;5.95;79.60;101471.47;5100705;27;45301;-63
2023/03/15 07:12:42;;;;;;;;;13.00;10.67;;;;;6.05;79.38;101493.38;5099892;27;45335;-63
2023/03/15 07:15:09;;;;;;;;;19.33;15.00;;;;;6.07;79.40;101491.66;5100074;27;45450;-63
2023/03/15 07:17:34;;;;;;;;;9.67;9.00;;;;;6.09;79.46;101508.25;5100017;27;45337;-63
2023/03/15 07:20:00;;;;;;;;;10.00;8.00;;;;;6.02;79.66;101495.97;5100376;27;45275;-63
2023/03/15 07:22:25;;;;;;;;;11.00;7.33;;;;;6.25;78.96;101507.47;5100033;27;46559;-63
2023/03/15 07:24:51;;;;;;;;;8.67;8.00;;;;;6.95;78.20;101481.72;5099968;27;45362;-63
2023/03/15 07:27:16;;;;;;;;;7.67;7.00;;;;;7.44;74.53;101497.59;5100051;27;45185;-63
2023/03/15 07:29:42;;;;;;;;;11.33;10.00;;;;;7.39;74.12;101509.81;5100171;27;45249;-63
2023/03/15 07:32:07;;;;;;;;;10.00;9.00;;;;;7.11;74.19;101500.97;5099539;27;45443;-63
2023/03/15 07:34:32;;;;;;;;;11.00;8.00;;;;;7.00;75.40;101511.41;5099878;27;45186;-63
2023/03/15 07:36:58;;;;;;;;;10.00;8.67;;;;;7.23;75.54;101514.13;5099873;27;46026;-63
2023/03/15 07:39:25;;;;;;;;;12.00;10.00;;;;;7.46;74.19;101508.97;5100047;27;45421;-63
2023/03/15 07:41:51;;;;;;;;;12.00;10.33;;;;;7.41;74.09;101508.06;5099554;27;46202;-63
2023/03/15 07:44:16;;;;;;;;;9.00;9.00;;;;;8.06;73.92;101515.13;5099584;27;45888;-63
2023/03/15 07:46:42;;;;;;;;;12.00;10.33;;;;;8.00;71.57;101510.75;5099793;27;45686;-63
2023/03/15 07:49:07;;;;;;;;;12.33;10.00;;;;;7.65;72.38;101504.63;5099799;27;45470;-63
2023/03/15 07:51:32;;;;;;;;;12.00;8.33;;;;;7.60;73.36;101521.22;5099554;27;45368;-63
2023/03/15 07:53:58;;;;;;;;;12.33;9.67;;;;;7.42;73.70;101507.19;5099343;27;45378;-63
2023/03/15 07:56:23;;;;;;;;;7.00;7.00;;;;;7.54;74.20;101523.78;5099543;27;45548;-63
2023/03/15 07:58:48;;;;;;;;;12.33;8.67;;;;;7.53;73.69;101520.31;5099779;27;45374;-63
2023/03/15 08:01:14;;;;;;;;;9.67;9.67;;;;;7.52;74.09;101529.03;5099325;27;45582;-63
2023/03/15 08:03:40;;;;;;;;;11.67;9.67;;;;;7.45;74.25;101532.50;5099426;27;45511;-63
2023/03/15 08:06:06;;;;;;;;;19.33;12.33;;;;;7.44;74.41;101547.38;5098620;27;45237;-63
2023/03/15 08:08:31;;;;;;;;;12.33;9.67;;;;;7.47;74.46;101547.38;5099224;27;45458;-63
2023/03/15 08:10:58;;;;;;;;;11.00;10.00;;;;;7.74;74.24;101537.84;5099141;27;45636;-63
2023/03/15 08:13:24;;;;;;;;;12.33;11.00;;;;;8.03;73.43;101539.63;5098946;27;45199;-64
2023/03/15 08:15:49;;;;;;;;;14.67;10.67;;;;;8.37;71.93;101545.72;5099396;27;45324;-64
2023/03/15 08:18:14;;;;;;;;;9.00;7.67;;;;;8.39;71.22;101550.97;5099197;27;45414;-63
2023/03/15 08:20:40;;;;;;;;;11.67;7.00;;;;;8.36;71.81;101559.75;5099020;27;45542;-63
2023/03/15 08:23:06;;;;;;;;;9.67;9.67;;;;;9.34;72.35;101555.13;5099248;27;45494;-63
2023/03/15 08:25:31;;;;;;;;;14.67;10.67;;;;;11.41;65.03;101550.69;5099144;27;45420;-63
2023/03/15 08:27:57;;;;;;;;;13.00;9.33;;;;;12.28;61.73;101563.50;5099287;27;45437;-63
2023/03/15 08:30:23;;;;;;;;;15.33;10.33;;;;;13.01;60.57;101563.09;5098643;27;45366;-63
2023/03/15 08:32:51;;;;;;;;;9.00;8.00;;;;;13.03;58.12;101561.25;5098826;27;45514;-63
2023/03/15 08:35:18;;;;;;;;;7.67;7.00;;;;;12.58;56.91;101555.09;5098889;27;45264;-63
2023/03/15 08:37:46;;;;;;;;;11.33;7.67;;;;;12.88;56.88;101567.72;5099002;27;45374;-64
2023/03/15 08:40:17;;;;;;;;;19.33;15.33;;;;;13.57;56.14;101576.03;5098517;27;47132;-63
2023/03/15 08:42:44;;;;;;;;;9.00;9.00;;;;;15.05;52.04;101570.66;5098559;27;45299;-64
2023/03/15 08:45:10;;;;;;;;;11.67;10.33;;;;;15.60;50.11;101581.44;5098707;27;45446;-64
2023/03/15 08:47:36;;;;;;;;;7.00;7.00;;;;;16.04;49.80;101591.63;5098857;27;45354;-64
2023/03/15 08:50:07;;;;;;;;;6.25;5.50;;;;;15.68;47.73;101590.03;5098476;27;46525;-64
2023/03/15 08:52:32;;;;;;;;;4.00;4.00;;;;;14.92;49.06;101592.22;5098488;27;45253;-64
2023/03/15 08:54:58;;;;;;;;;6.50;5.00;;;;;14.18;53.40;101572.88;5098859;27;45245;-64
2023/03/15 08:57:24;;;;;;;;;7.00;6.00;;;;;13.95;52.99;101596.41;5098722;27;45384;-63
2023/03/15 08:59:50;;;;;;;;;6.00;4.50;;;;;14.00;53.91;101591.84;5098234;27;47353;-63
2023/03/15 09:02:16;;;;;;;;;6.00;5.00;;;;;13.57;52.30;101591.91;5098618;27;45382;-63
2023/03/15 09:04:41;;;;;;;;;6.00;6.00;;;;;13.24;51.57;101594.34;5098452;27;45422;-63
2023/03/15 09:07:06;;;;;;;;;12.00;11.00;;;;;12.87;51.94;101586.25;5098542;27;45379;-63
2023/03/15 09:09:32;;;;;;;;;6.00;6.00;;;;;12.63;51.58;101599.00;5098365;27;46243;-64
2023/03/15 09:11:58;;;;;;;;;6.00;6.00;;;;;12.96;50.22;101575.50;5098099;27;45567;-64
2023/03/15 09:14:23;;;;;;;;;15.67;14.33;;;;;13.80;50.12;101587.91;5098481;27;45356;-64
2023/03/15 09:16:48;;;;;;;;;11.67;8.67;;;;;14.10;49.67;101580.13;5097489;27;45248;-64
2023/03/15 09:19:14;;;;;;;;;9.00;7.67;;;;;13.86;50.21;101587.75;5098105;27;45649;-64
2023/03/15 09:21:40;;;;;;;;;6.33;6.33;;;;;13.48;47.76;101584.19;5098110;27;45331;-64
2023/03/15 09:24:05;;;;;;;;;4.75;4.50;;;;;13.17;48.38;101590.09;5097469;27;45493;-64
2023/03/15 09:26:30;;;;;;;;;23.33;19.33;;;;;12.98;50.39;101586.03;5098177;27;45240;-63
2023/03/15 09:28:56;;;;;;;;;2.25;1.00;;;;;12.81;50.78;101581.97;5097970;27;45471;-63
2023/03/15 09:31:21;;;;;;;;;10.67;8.33;;;;;12.82;50.49;101583.72;5098196;27;45199;-64
2023/03/15 09:33:46;;;;;;;;;7.00;6.00;;;;;13.24;50.61;101572.31;5098187;27;45532;-63
2023/03/15 09:36:12;;;;;;;;;7.75;6.75;;;;;13.72;45.83;101579.25;5098274;27;45370;-64
2023/03/15 09:38:37;;;;;;;;;7.67;7.67;;;;;14.08;48.16;101568.72;5097835;27;46706;-64
2023/03/15 09:41:03;;;;;;;;;10.33;8.33;;;;;14.60;46.98;101567.41;5097914;27;45454;-64
2023/03/15 09:43:41;;;;;;;;;11.33;8.00;;;;;14.89;47.82;101581.69;5098089;27;45497;-64
2023/03/15 09:46:06;;;;;;;;;9.67;7.00;;;;;15.02;46.05;101586.66;5098029;27;45311;-64
2023/03/15 09:48:36;;;;;;;;;8.00;8.00;;;;;14.93;45.45;101586.00;5097624;27;46674;-64
2023/03/15 09:51:18;;;;;;;;;10.00;8.67;;;;;14.69;46.82;101584.88;5097836;27;45337;-64
2023/03/15 09:53:55;;;;;;;;;10.00;8.00;;;;;14.52;48.25;101595.91;5098009;27;45299;-64
2023/03/15 09:56:35;;;;;;;;;6.50;5.00;;;;;14.39;47.44;101590.03;5098026;27;45447;-64
2023/03/15 09:59:01;;;;;;;;;5.50;5.50;;;;;14.56;46.75;101594.03;5097271;27;46481;-64
2023/03/15 10:01:34;;;;;;;;;8.00;7.00;;;;;15.14;45.89;101578.34;5097388;27;45316;-64
2023/03/15 10:04:15;;;;;;;;;7.00;7.00;;;;;15.50;46.16;101589.66;5098045;27;45332;-64
2023/03/15 10:06:46;;;;;;;;;7.50;3.75;;;;;15.91;43.67;101584.03;5097760;27;45359;-64
2023/03/15 10:09:17;;;;;;;;;6.00;6.00;;;;;16.08;44.39;101596.78;5097227;27;45344;-64
2023/03/15 10:12:07;;;;;;;;;6.25;5.00;;;;;16.34;46.29;101595.94;5096803;27;45335;-64
2023/03/15 10:14:46;;;;;;;;;10.67;8.33;;;;;16.79;43.98;101594.41;5097659;27;45492;-63
2023/03/15 10:17:14;;;;;;;;;4.75;4.75;;;;;17.10;41.90;101597.81;5097788;27;45364;-64
2023/03/15 10:19:52;;;;;;;;;10.00;9.00;;;;;18.08;41.73;101606.50;5097262;27;46622;-64
2023/03/15 10:22:24;;;;;;;;;3.00;3.00;;;;;18.64;39.47;101589.06;5097456;27;45341;-64
2023/03/15 10:24:55;;;;;;;;;5.25;5.25;;;;;18.50;40.51;101592.34;5097490;27;45295;-64
2023/03/15 10:27:47;;;;;;;;;4.75;3.75;;;;;18.05;41.23;101579.97;5097559;27;45492;-63
2023/03/15 10:30:20;;;;;;;;;5.00;5.00;;;;;17.61;42.90;101594.09;5100810;27;46318;-63
2023/03/15 10:32:51;;;;;;;;;5.00;3.25;;;;;17.04;39.61;101597.09;5100841;27;45460;-64
2023/03/15 10:35:18;;;;;;;;;6.00;5.00;;;;;16.74;41.10;101593.69;5100966;27;45213;-64
2023/03/15 10:37:44;;;;;;;;;2.00;2.00;;;;;16.96;39.57;101592.97;5101043;27;45230;-64
2023/03/15 10:40:14;;;;;;;;;4.75;4.75;;;;;17.17;40.25;101594.84;5100513;27;46269;-64
2023/03/15 10:42:43;;;;;;;;;3.00;3.00;;;;;17.19;40.12;101597.47;5100305;27;45476;-64
2023/03/15 10:45:22;;;;;;;;;3.75;3.00;;;;;16.66;40.45;101604.59;5100715;27;45344;-64
2023/03/15 10:47:48;;;;;;;;;4.00;3.25;;;;;16.41;39.10;101601.03;5100921;27;45337;-64
2023/03/15 10:50:29;;;;;;;;;3.00;3.00;;;;;15.88;39.23;101597.41;5100467;27;46362;-64
2023/03/15 10:52:57;;;;;;;;;2.00;2.00;;;;;15.86;38.58;101603.69;5100315;27;45222;-64
2023/03/15 10:55:35;;;;;;;;;2.50;2.50;;;;;15.69;39.01;101598.88;5100641;27;45277;-64
2023/03/15 10:58:19;;;;;;;;;3.25;3.00;;;;;15.69;41.11;101604.19;5100539;27;45434;-63
2023/03/15 11:00:57;;;;;;;;;3.25;3.25;;;;;15.72;41.36;101614.72;5100262;27;47206;-63
2023/03/15 11:03:24;;;;;;;;;5.00;4.75;;;;;15.31;40.58;101612.38;5100190;27;45457;-63
2023/03/15 11:05:52;;;;;;;;;3.75;2.25;;;;;14.90;42.15;101620.56;5100340;27;45445;-64
2023/03/15 11:08:20;;;;;;;;;6.25;4.00;;;;;14.47;42.91;101620.78;5100206;27;45353;-64
2023/03/15 11:10:55;;;;;;;;;4.00;3.50;;;;;14.09;43.32;101619.00;5099992;27;45673;-64
2023/03/15 11:13:35;;;;;;;;;8.25;6.00;;;;;13.81;43.10;101633.75;5099885;27;45415;-63
2023/03/15 11:16:07;;;;;;;;;4.25;3.00;;;;;13.53;41.61;101626.41;5100507;27;45437;-63
2023/03/15 11:18:41;;;;;;;;;3.50;3.00;;;;;13.35;43.09;101625.91;5100347;27;45503;-63
2023/03/15 11:21:10;;;;;;;;;3.00;3.00;;;;;13.28;41.40;101624.25;5099964;27;46114;-63
2023/03/15 11:23:39;;;;;;;;;4.00;3.00;;;;;13.31;44.23;101631.25;5100027;27;45498;-63
2023/03/15 11:26:05;;;;;;;;;1.50;1.25;;;;;13.28;42.57;101628.66;5100112;27;45436;-63
2023/03/15 11:28:35;;;;;;;;;5.00;2.00;;;;;13.15;44.02;101617.47;5100125;27;45341;-63
2023/03/15 11:31:03;;;;;;;;;2.50;2.50;;;;;13.14;44.25;101613.94;5099999;27;46503;-63